Detall de PIREP

Printer-friendly versionPDF version

[2014/12/06 15:44:00]
Flight IATA:CT2105
Pilot Number:012
Company ICAO:CAT
Aircraft Type:AT72/F
PAX:68
Departing Airport: LEBB
Destination Airport: LEVC
Alternate Airport:LEPA
Online: VATSIM
Route:PPN UM176 MANDY
Flight Level:F190
No Slew and time accel
No pause
Crash detect
Detect pilot in Cockpit between each 30 and 45 minutes
15:44 Zero fuel Weight: 41988 Lbs, Fuel Weight: 6384 Lbs
15:44 VATSIM:LEBB 061530Z 35010KT 300V050 9999 -RA SCT018TCU BKN030 08/04 Q1027 TEMPO 3000 SHRA SCT025TCU
15:44 VATSIM:LEVC 061530Z 30015KT 9999 FEW035 14/M02 Q1019 WS R30 NOSIG
15:53 Parking Brakes off
15:58 Take-off
15:58 Take off Weight: 48309 Lbs
15:58 Wind: 358º @ 010 Knots Heading: 299º
15:58 POS N43º 18´ 06´´ W002º 54´ 45´´
15:58 Gear Up: 128 Knots
15:58 Flaps:1 at 128 Knots
15:58 Flaps:0 at 132 Knots
16:12 TOC
16:12 Fuel Weight: 5834 Lb
16:13 Wind:017º@059 Knots Heading: 131º Ground Speed: 264 Knots Altitude 19291 ft
16:28 Wind:014º@064 Knots Heading: 166º Ground Speed: 335 Knots Altitude 19291 ft
16:43 Wind:005º@055 Knots Heading: 165º Ground Speed: 326 Knots Altitude 19255 ft
16:54 TOD
16:54 Fuel Weight: 4683 Lb
16:58 Wind:341º@038 Knots Heading: 104º Ground Speed: 299 Knots Altitude 13366 ft
17:05 Flaps:1 at 151 Knots
17:07 Gear Down: 147 Knots
17:07 Flaps:2 at 147 Knots
17:10 TouchDown:Rate -154 ft/min Speed: 100 Knots
17:10 Flaps:0 at 46 Knots
17:10 VATSIM:LEVC 061630Z 30017KT 9999 FEW040 13/M04 Q1020 NOSIG
17:10 Land
17:10 Wind:300º@017 Knots
17:10 Heading: 295º
17:10 Flight Duration: 01:12
17:10 Landing Weight: 46486 Lbs
17:10 POS N39º 29´ 20´´ W000º 28´ 50´´
17:13 Parking brakes on
17:13 Block to Block Duration: 01:20
17:13 Final Fuel: 4481 Lbls
17:13 Spent Fuel: 1902 Lbls
17:13 Flight Length: 332 NM
17:13 TODLand Length: 58 NM

Exportar CSV

Powered by Drupal - Modified by Danger4k